sensor_id;sensor_type;location;lat;lon;timestamp;pressure;altitude;pressure_sealevel;temperature;humidity
64139;BME280;50435;43.700;-79.318;2023-02-04T00:01:40;101825.26;;;-9.63;36.43
64139;BME280;50435;43.700;-79.318;2023-02-04T00:04:08;101845.71;;;-9.16;36.07
64139;BME280;50435;43.700;-79.318;2023-02-04T00:06:36;101821.67;;;-9.41;36.43
64139;BME280;50435;43.700;-79.318;2023-02-04T00:09:04;101829.23;;;-9.21;36.08
64139;BME280;50435;43.700;-79.318;2023-02-04T00:11:32;101843.85;;;-9.34;36.21
64139;BME280;50435;43.700;-79.318;2023-02-04T00:13:59;101829.26;;;-9.53;36.31
64139;BME280;50435;43.700;-79.318;2023-02-04T00:16:27;101844.14;;;-9.40;36.77
64139;BME280;50435;43.700;-79.318;2023-02-04T00:18:55;101849.80;;;-9.49;36.28
64139;BME280;50435;43.700;-79.318;2023-02-04T00:21:22;101858.32;;;-10.09;36.36
64139;BME280;50435;43.700;-79.318;2023-02-04T00:23:50;101874.20;;;-10.00;36.65
64139;BME280;50435;43.700;-79.318;2023-02-04T00:26:18;101873.24;;;-9.99;36.36
64139;BME280;50435;43.700;-79.318;2023-02-04T00:28:46;101879.81;;;-9.58;36.63
64139;BME280;50435;43.700;-79.318;2023-02-04T00:31:14;101881.47;;;-9.62;36.47
64139;BME280;50435;43.700;-79.318;2023-02-04T00:33:41;101888.47;;;-9.90;36.85
64139;BME280;50435;43.700;-79.318;2023-02-04T00:36:08;101893.81;;;-9.96;36.55
64139;BME280;50435;43.700;-79.318;2023-02-04T00:38:36;101894.44;;;-9.71;36.55
64139;BME280;50435;43.700;-79.318;2023-02-04T00:41:04;101900.93;;;-9.63;36.32
64139;BME280;50435;43.700;-79.318;2023-02-04T00:43:31;101912.68;;;-9.85;36.61
64139;BME280;50435;43.700;-79.318;2023-02-04T00:45:59;101913.24;;;-9.83;36.53
64139;BME280;50435;43.700;-79.318;2023-02-04T00:48:27;101920.33;;;-9.90;36.72
64139;BME280;50435;43.700;-79.318;2023-02-04T00:50:55;101922.87;;;-9.96;36.90
64139;BME280;50435;43.700;-79.318;2023-02-04T00:53:23;101927.01;;;-10.18;36.77
64139;BME280;50435;43.700;-79.318;2023-02-04T00:55:50;101937.59;;;-10.13;36.85
64139;BME280;50435;43.700;-79.318;2023-02-04T00:58:17;101934.79;;;-10.63;36.88
64139;BME280;50435;43.700;-79.318;2023-02-04T01:00:45;101937.47;;;-9.54;36.54
64139;BME280;50435;43.700;-79.318;2023-02-04T01:03:12;101943.54;;;-10.12;36.53
64139;BME280;50435;43.700;-79.318;2023-02-04T01:05:39;101935.81;;;-9.86;36.55
64139;BME280;50435;43.700;-79.318;2023-02-04T01:08:07;101943.55;;;-9.89;36.73
64139;BME280;50435;43.700;-79.318;2023-02-04T01:10:35;101958.69;;;-10.14;36.50
64139;BME280;50435;43.700;-79.318;2023-02-04T01:13:03;101962.23;;;-9.81;36.38
64139;BME280;50435;43.700;-79.318;2023-02-04T01:15:31;101973.32;;;-10.20;36.50
64139;BME280;50435;43.700;-79.318;2023-02-04T01:17:59;101982.64;;;-10.14;36.38
64139;BME280;50435;43.700;-79.318;2023-02-04T01:20:26;101984.06;;;-10.31;36.47
64139;BME280;50435;43.700;-79.318;2023-02-04T01:22:54;101983.43;;;-10.06;36.46
64139;BME280;50435;43.700;-79.318;2023-02-04T01:25:22;101984.35;;;-10.46;36.51
64139;BME280;50435;43.700;-79.318;2023-02-04T01:27:50;101990.35;;;-10.07;36.47
64139;BME280;50435;43.700;-79.318;2023-02-04T01:30:18;101991.64;;;-10.83;36.40
64139;BME280;50435;43.700;-79.318;2023-02-04T01:32:45;101992.88;;;-10.23;36.21
64139;BME280;50435;43.700;-79.318;2023-02-04T01:35:12;101991.24;;;-10.16;36.44
64139;BME280;50435;43.700;-79.318;2023-02-04T01:37:40;101993.78;;;-10.49;36.56
64139;BME280;50435;43.700;-79.318;2023-02-04T01:40:09;102001.87;;;-10.15;36.31
64139;BME280;50435;43.700;-79.318;2023-02-04T01:42:37;102002.37;;;-10.47;36.36
64139;BME280;50435;43.700;-79.318;2023-02-04T01:45:06;101998.83;;;-10.34;36.39
64139;BME280;50435;43.700;-79.318;2023-02-04T01:47:34;101996.82;;;-10.30;36.45
64139;BME280;50435;43.700;-79.318;2023-02-04T01:50:02;102005.88;;;-10.35;36.48
64139;BME280;50435;43.700;-79.318;2023-02-04T01:52:34;102012.25;;;-10.65;36.53
64139;BME280;50435;43.700;-79.318;2023-02-04T01:55:01;102019.75;;;-10.67;36.59
64139;BME280;50435;43.700;-79.318;2023-02-04T01:57:29;102025.78;;;-10.06;36.48
64139;BME280;50435;43.700;-79.318;2023-02-04T01:59:57;102038.58;;;-10.38;36.25
64139;BME280;50435;43.700;-79.318;2023-02-04T02:02:42;102039.94;;;-10.41;36.24
64139;BME280;50435;43.700;-79.318;2023-02-04T02:05:16;102053.13;;;-10.62;36.49
64139;BME280;50435;43.700;-79.318;2023-02-04T02:07:44;102052.94;;;-10.36;36.42
64139;BME280;50435;43.700;-79.318;2023-02-04T02:10:13;102056.87;;;-10.68;36.58
64139;BME280;50435;43.700;-79.318;2023-02-04T02:12:42;102058.78;;;-10.53;36.65
64139;BME280;50435;43.700;-79.318;2023-02-04T02:15:10;102058.62;;;-10.56;36.37
64139;BME280;50435;43.700;-79.318;2023-02-04T02:17:39;102058.79;;;-10.75;36.54
64139;BME280;50435;43.700;-79.318;2023-02-04T02:20:08;102055.84;;;-10.59;36.47
64139;BME280;50435;43.700;-79.318;2023-02-04T02:22:43;102058.41;;;-10.52;36.08
64139;BME280;50435;43.700;-79.318;2023-02-04T02:25:14;102062.23;;;-10.76;36.36
64139;BME280;50435;43.700;-79.318;2023-02-04T02:27:42;102062.76;;;-10.78;36.41
64139;BME280;50435;43.700;-79.318;2023-02-04T02:30:12;102075.17;;;-10.56;36.28
64139;BME280;50435;43.700;-79.318;2023-02-04T02:32:40;102073.15;;;-10.64;36.09
64139;BME280;50435;43.700;-79.318;2023-02-04T02:35:08;102076.65;;;-10.89;36.57
64139;BME280;50435;43.700;-79.318;2023-02-04T02:37:36;102085.64;;;-10.86;36.37
64139;BME280;50435;43.700;-79.318;2023-02-04T02:40:05;102087.40;;;-10.93;36.35
64139;BME280;50435;43.700;-79.318;2023-02-04T02:42:33;102092.09;;;-11.26;36.43
64139;BME280;50435;43.700;-79.318;2023-02-04T02:45:07;102091.07;;;-10.70;36.37
64139;BME280;50435;43.700;-79.318;2023-02-04T02:47:37;102093.80;;;-11.02;36.49
64139;BME280;50435;43.700;-79.318;2023-02-04T02:50:06;102099.67;;;-10.78;36.36
64139;BME280;50435;43.700;-79.318;2023-02-04T02:52:34;102098.84;;;-10.83;36.32
64139;BME280;50435;43.700;-79.318;2023-02-04T02:55:01;102097.00;;;-10.83;36.33
64139;BME280;50435;43.700;-79.318;2023-02-04T02:57:28;102098.56;;;-11.03;36.40
64139;BME280;50435;43.700;-79.318;2023-02-04T02:59:55;102101.96;;;-10.83;36.21
64139;BME280;50435;43.700;-79.318;2023-02-04T03:02:23;102104.94;;;-11.04;36.13
64139;BME280;50435;43.700;-79.318;2023-02-04T03:04:53;102104.08;;;-11.33;36.49
64139;BME280;50435;43.700;-79.318;2023-02-04T03:07:22;102111.72;;;-10.86;36.11
64139;BME280;50435;43.700;-79.318;2023-02-04T03:09:50;102113.30;;;-11.00;36.38
64139;BME280;50435;43.700;-79.318;2023-02-04T03:12:18;102110.34;;;-11.57;36.28
64139;BME280;50435;43.700;-79.318;2023-02-04T03:14:46;102117.31;;;-10.93;36.29
64139;BME280;50435;43.700;-79.318;2023-02-04T03:17:14;102120.55;;;-11.00;36.12
64139;BME280;50435;43.700;-79.318;2023-02-04T03:19:42;102123.50;;;-11.06;36.25
64139;BME280;50435;43.700;-79.318;2023-02-04T03:22:09;102125.78;;;-11.17;36.27
64139;BME280;50435;43.700;-79.318;2023-02-04T03:24:37;102131.65;;;-10.93;35.81
64139;BME280;50435;43.700;-79.318;2023-02-04T03:27:05;102128.09;;;-11.08;36.21
64139;BME280;50435;43.700;-79.318;2023-02-04T03:29:33;102123.05;;;-11.19;36.20
64139;BME280;50435;43.700;-79.318;2023-02-04T03:32:00;102121.42;;;-11.26;35.95
64139;BME280;50435;43.700;-79.318;2023-02-04T03:34:27;102122.70;;;-11.17;36.12
64139;BME280;50435;43.700;-79.318;2023-02-04T03:36:54;102121.35;;;-11.30;36.21
64139;BME280;50435;43.700;-79.318;2023-02-04T03:39:21;102125.24;;;-11.74;36.15
64139;BME280;50435;43.700;-79.318;2023-02-04T03:41:48;102122.28;;;-11.27;36.32
64139;BME280;50435;43.700;-79.318;2023-02-04T03:44:16;102130.68;;;-12.32;36.21
64139;BME280;50435;43.700;-79.318;2023-02-04T03:46:43;102140.98;;;-11.16;36.24
64139;BME280;50435;43.700;-79.318;2023-02-04T03:49:10;102148.29;;;-11.09;36.24
64139;BME280;50435;43.700;-79.318;2023-02-04T03:51:37;102144.36;;;-11.11;36.06
64139;BME280;50435;43.700;-79.318;2023-02-04T03:54:04;102145.29;;;-11.39;36.16
64139;BME280;50435;43.700;-79.318;2023-02-04T03:56:32;102148.63;;;-11.41;36.20
64139;BME280;50435;43.700;-79.318;2023-02-04T03:58:59;102155.56;;;-11.36;35.93
64139;BME280;50435;43.700;-79.318;2023-02-04T04:01:26;102156.21;;;-11.51;36.12
64139;BME280;50435;43.700;-79.318;2023-02-04T04:03:53;102167.49;;;-11.42;35.99
64139;BME280;50435;43.700;-79.318;2023-02-04T04:06:20;102168.72;;;-11.38;35.73
64139;BME280;50435;43.700;-79.318;2023-02-04T04:08:48;102169.64;;;-10.85;35.90
64139;BME280;50435;43.700;-79.318;2023-02-04T04:11:15;102177.44;;;-11.78;35.66
64139;BME280;50435;43.700;-79.318;2023-02-04T04:13:43;102178.57;;;-11.51;35.91
64139;BME280;50435;43.700;-79.318;2023-02-04T04:16:11;102182.70;;;-11.12;35.72
64139;BME280;50435;43.700;-79.318;2023-02-04T04:18:38;102198.25;;;-11.51;35.82
64139;BME280;50435;43.700;-79.318;2023-02-04T04:21:05;102210.22;;;-11.70;35.94
64139;BME280;50435;43.700;-79.318;2023-02-04T04:23:32;102211.00;;;-11.65;36.07
64139;BME280;50435;43.700;-79.318;2023-02-04T04:25:59;102211.01;;;-11.65;35.97
64139;BME280;50435;43.700;-79.318;2023-02-04T04:28:27;102216.17;;;-11.81;36.06
64139;BME280;50435;43.700;-79.318;2023-02-04T04:30:54;102213.25;;;-11.63;36.01
64139;BME280;50435;43.700;-79.318;2023-02-04T04:33:21;102218.02;;;-11.65;35.91
64139;BME280;50435;43.700;-79.318;2023-02-04T04:35:48;102224.30;;;-11.72;35.99
64139;BME280;50435;43.700;-79.318;2023-02-04T04:38:15;102221.78;;;-12.37;36.10
64139;BME280;50435;43.700;-79.318;2023-02-04T04:40:42;102229.45;;;-11.53;36.11
64139;BME280;50435;43.700;-79.318;2023-02-04T04:43:09;102238.24;;;-11.88;36.04
64139;BME280;50435;43.700;-79.318;2023-02-04T04:45:37;102235.08;;;-11.77;35.86
64139;BME280;50435;43.700;-79.318;2023-02-04T04:48:05;102230.56;;;-11.80;35.86
64139;BME280;50435;43.700;-79.318;2023-02-04T04:50:32;102229.43;;;-11.86;35.93
64139;BME280;50435;43.700;-79.318;2023-02-04T04:52:59;102244.06;;;-11.98;35.88
64139;BME280;50435;43.700;-79.318;2023-02-04T04:55:26;102246.26;;;-11.91;35.92
64139;BME280;50435;43.700;-79.318;2023-02-04T04:57:53;102244.03;;;-11.83;35.84
64139;BME280;50435;43.700;-79.318;2023-02-04T05:00:21;102247.98;;;-11.82;35.86
64139;BME280;50435;43.700;-79.318;2023-02-04T05:02:48;102250.05;;;-11.88;36.01
64139;BME280;50435;43.700;-79.318;2023-02-04T05:05:15;102250.55;;;-12.51;36.07
64139;BME280;50435;43.700;-79.318;2023-02-04T05:07:43;102251.22;;;-12.10;36.23
64139;BME280;50435;43.700;-79.318;2023-02-04T05:10:11;102250.73;;;-11.78;36.18
64139;BME280;50435;43.700;-79.318;2023-02-04T05:12:38;102251.58;;;-11.60;36.26
64139;BME280;50435;43.700;-79.318;2023-02-04T05:15:06;102254.24;;;-11.61;36.18
64139;BME280;50435;43.700;-79.318;2023-02-04T05:17:34;102237.75;;;-12.04;36.16
64139;BME280;50435;43.700;-79.318;2023-02-04T05:20:02;102238.85;;;-11.93;35.89
64139;BME280;50435;43.700;-79.318;2023-02-04T05:22:30;102241.62;;;-11.47;35.85
64139;BME280;50435;43.700;-79.318;2023-02-04T05:24:57;102245.94;;;-12.17;36.00
64139;BME280;50435;43.700;-79.318;2023-02-04T05:27:24;102245.52;;;-11.96;35.80
64139;BME280;50435;43.700;-79.318;2023-02-04T05:29:52;102246.72;;;-11.90;35.75
64139;BME280;50435;43.700;-79.318;2023-02-04T05:32:19;102249.67;;;-11.91;35.68
64139;BME280;50435;43.700;-79.318;2023-02-04T05:34:46;102254.30;;;-12.05;35.85
64139;BME280;50435;43.700;-79.318;2023-02-04T05:37:13;102259.44;;;-11.68;36.06
64139;BME280;50435;43.700;-79.318;2023-02-04T05:39:40;102266.85;;;-12.03;35.89
64139;BME280;50435;43.700;-79.318;2023-02-04T05:42:08;102279.65;;;-11.94;35.92
64139;BME280;50435;43.700;-79.318;2023-02-04T05:44:35;102271.20;;;-12.02;35.83
64139;BME280;50435;43.700;-79.318;2023-02-04T05:47:02;102266.83;;;-11.92;35.94
64139;BME280;50435;43.700;-79.318;2023-02-04T05:49:29;102262.32;;;-12.33;36.14
64139;BME280;50435;43.700;-79.318;2023-02-04T05:51:56;102265.79;;;-11.84;36.20
64139;BME280;50435;43.700;-79.318;2023-02-04T05:54:23;102264.22;;;-12.22;35.98
64139;BME280;50435;43.700;-79.318;2023-02-04T05:56:50;102264.67;;;-11.82;36.07
64139;BME280;50435;43.700;-79.318;2023-02-04T05:59:18;102264.04;;;-12.27;36.05
64139;BME280;50435;43.700;-79.318;2023-02-04T06:01:45;102261.06;;;-12.02;35.93
64139;BME280;50435;43.700;-79.318;2023-02-04T06:04:12;102259.11;;;-11.77;36.06
64139;BME280;50435;43.700;-79.318;2023-02-04T06:06:40;102263.95;;;-11.97;35.86
64139;BME280;50435;43.700;-79.318;2023-02-04T06:09:07;102264.13;;;-11.70;35.93
64139;BME280;50435;43.700;-79.318;2023-02-04T06:11:35;102262.76;;;-12.32;36.00
64139;BME280;50435;43.700;-79.318;2023-02-04T06:14:03;102258.69;;;-11.98;36.16
64139;BME280;50435;43.700;-79.318;2023-02-04T06:16:31;102262.72;;;-12.30;36.00
64139;BME280;50435;43.700;-79.318;2023-02-04T06:18:59;102268.55;;;-11.79;35.89
64139;BME280;50435;43.700;-79.318;2023-02-04T06:21:27;102275.34;;;-12.20;36.19
64139;BME280;50435;43.700;-79.318;2023-02-04T06:23:54;102274.23;;;-12.26;36.19
64139;BME280;50435;43.700;-79.318;2023-02-04T06:26:22;102284.29;;;-12.47;36.21
64139;BME280;50435;43.700;-79.318;2023-02-04T06:28:49;102295.29;;;-11.95;36.16
64139;BME280;50435;43.700;-79.318;2023-02-04T06:31:17;102302.81;;;-12.38;36.06
64139;BME280;50435;43.700;-79.318;2023-02-04T06:33:44;102298.91;;;-12.19;36.14
64139;BME280;50435;43.700;-79.318;2023-02-04T06:36:12;102298.74;;;-11.98;36.09
64139;BME280;50435;43.700;-79.318;2023-02-04T06:38:40;102291.21;;;-11.92;36.00
64139;BME280;50435;43.700;-79.318;2023-02-04T06:41:07;102285.67;;;-11.93;36.13
64139;BME280;50435;43.700;-79.318;2023-02-04T06:43:35;102269.44;;;-12.08;36.00
64139;BME280;50435;43.700;-79.318;2023-02-04T06:46:02;102266.12;;;-11.95;36.10
64139;BME280;50435;43.700;-79.318;2023-02-04T06:48:30;102268.58;;;-12.31;35.98
64139;BME280;50435;43.700;-79.318;2023-02-04T06:50:57;102261.03;;;-12.18;36.04
64139;BME280;50435;43.700;-79.318;2023-02-04T06:53:24;102257.80;;;-12.19;36.05
64139;BME280;50435;43.700;-79.318;2023-02-04T06:55:51;102264.26;;;-11.94;36.17
64139;BME280;50435;43.700;-79.318;2023-02-04T06:58:18;102272.46;;;-12.33;36.02
64139;BME280;50435;43.700;-79.318;2023-02-04T07:00:45;102274.68;;;-11.87;36.00
64139;BME280;50435;43.700;-79.318;2023-02-04T07:03:12;102275.24;;;-11.96;36.10
64139;BME280;50435;43.700;-79.318;2023-02-04T07:05:39;102275.19;;;-11.76;35.87
64139;BME280;50435;43.700;-79.318;2023-02-04T07:08:06;102272.38;;;-11.92;36.11
64139;BME280;50435;43.700;-79.318;2023-02-04T07:10:33;102269.99;;;-12.39;36.15
64139;BME280;50435;43.700;-79.318;2023-02-04T07:13:00;102267.17;;;-12.10;36.18
64139;BME280;50435;43.700;-79.318;2023-02-04T07:15:28;102270.97;;;-12.06;35.92
64139;BME280;50435;43.700;-79.318;2023-02-04T07:17:54;102274.16;;;-12.00;36.20
64139;BME280;50435;43.700;-79.318;2023-02-04T07:20:22;102268.08;;;-12.38;36.21
64139;BME280;50435;43.700;-79.318;2023-02-04T07:22:50;102261.38;;;-11.79;36.19
64139;BME280;50435;43.700;-79.318;2023-02-04T07:25:17;102260.27;;;-12.87;36.23
64139;BME280;50435;43.700;-79.318;2023-02-04T07:27:44;102264.11;;;-11.82;36.05
64139;BME280;50435;43.700;-79.318;2023-02-04T07:30:12;102259.31;;;-12.38;36.29
64139;BME280;50435;43.700;-79.318;2023-02-04T07:32:40;102262.95;;;-12.02;36.09
64139;BME280;50435;43.700;-79.318;2023-02-04T07:35:08;102262.82;;;-11.77;36.03
64139;BME280;50435;43.700;-79.318;2023-02-04T07:37:35;102262.37;;;-12.16;36.13
64139;BME280;50435;43.700;-79.318;2023-02-04T07:40:03;102260.80;;;-11.76;36.01
64139;BME280;50435;43.700;-79.318;2023-02-04T07:42:30;102251.11;;;-12.03;36.04
64139;BME280;50435;43.700;-79.318;2023-02-04T07:44:57;102252.36;;;-12.44;36.31
64139;BME280;50435;43.700;-79.318;2023-02-04T07:47:24;102246.65;;;-11.77;36.07
64139;BME280;50435;43.700;-79.318;2023-02-04T07:49:52;102243.31;;;-11.89;36.31
64139;BME280;50435;43.700;-79.318;2023-02-04T07:52:19;102242.54;;;-12.46;36.33
64139;BME280;50435;43.700;-79.318;2023-02-04T07:54:47;102241.74;;;-12.10;36.25
64139;BME280;50435;43.700;-79.318;2023-02-04T07:57:14;102236.00;;;-11.88;36.36
64139;BME280;50435;43.700;-79.318;2023-02-04T07:59:41;102235.00;;;-11.81;36.06
64139;BME280;50435;43.700;-79.318;2023-02-04T08:02:09;102231.45;;;-11.89;36.22
64139;BME280;50435;43.700;-79.318;2023-02-04T08:04:36;102232.80;;;-11.99;36.26
64139;BME280;50435;43.700;-79.318;2023-02-04T08:07:03;102238.82;;;-11.87;36.30
64139;BME280;50435;43.700;-79.318;2023-02-04T08:09:31;102239.34;;;-12.10;36.18
64139;BME280;50435;43.700;-79.318;2023-02-04T08:11:58;102241.55;;;-11.70;36.05
64139;BME280;50435;43.700;-79.318;2023-02-04T08:14:25;102235.68;;;-12.08;35.84
64139;BME280;50435;43.700;-79.318;2023-02-04T08:16:52;102242.37;;;-11.80;36.17
64139;BME280;50435;43.700;-79.318;2023-02-04T08:19:19;102238.11;;;-12.26;36.02
64139;BME280;50435;43.700;-79.318;2023-02-04T08:21:47;102231.38;;;-12.17;36.16
64139;BME280;50435;43.700;-79.318;2023-02-04T08:24:15;102240.34;;;-12.62;36.22
64139;BME280;50435;43.700;-79.318;2023-02-04T08:26:43;102236.37;;;-12.35;36.24
64139;BME280;50435;43.700;-79.318;2023-02-04T08:29:10;102233.37;;;-11.79;36.14
64139;BME280;50435;43.700;-79.318;2023-02-04T08:31:38;102234.25;;;-12.10;36.19
64139;BME280;50435;43.700;-79.318;2023-02-04T08:34:06;102230.33;;;-11.89;36.29
64139;BME280;50435;43.700;-79.318;2023-02-04T08:36:33;102232.73;;;-12.20;36.24
64139;BME280;50435;43.700;-79.318;2023-02-04T08:39:01;102233.87;;;-12.05;36.19
64139;BME280;50435;43.700;-79.318;2023-02-04T08:41:28;102235.80;;;-11.79;36.22
64139;BME280;50435;43.700;-79.318;2023-02-04T08:43:55;102232.32;;;-11.85;36.15
64139;BME280;50435;43.700;-79.318;2023-02-04T08:46:23;102232.36;;;-12.44;36.32
64139;BME280;50435;43.700;-79.318;2023-02-04T08:48:50;102226.71;;;-11.70;36.04
64139;BME280;50435;43.700;-79.318;2023-02-04T08:51:17;102223.89;;;-12.46;36.20
64139;BME280;50435;43.700;-79.318;2023-02-04T08:53:45;102222.61;;;-12.25;36.05
64139;BME280;50435;43.700;-79.318;2023-02-04T08:56:13;102219.33;;;-11.80;36.05
64139;BME280;50435;43.700;-79.318;2023-02-04T08:58:40;102213.54;;;-11.73;36.23
64139;BME280;50435;43.700;-79.318;2023-02-04T09:01:08;102207.52;;;-12.05;36.21
64139;BME280;50435;43.700;-79.318;2023-02-04T09:03:35;102194.96;;;-11.91;36.07
64139;BME280;50435;43.700;-79.318;2023-02-04T09:06:02;102204.09;;;-12.27;36.20
64139;BME280;50435;43.700;-79.318;2023-02-04T09:08:29;102187.34;;;-12.22;36.16
64139;BME280;50435;43.700;-79.318;2023-02-04T09:10:57;102191.28;;;-11.83;36.26
64139;BME280;50435;43.700;-79.318;2023-02-04T09:13:24;102186.95;;;-12.15;36.27
64139;BME280;50435;43.700;-79.318;2023-02-04T09:15:52;102176.63;;;-12.32;36.29
64139;BME280;50435;43.700;-79.318;2023-02-04T09:18:19;102180.35;;;-12.20;36.22
64139;BME280;50435;43.700;-79.318;2023-02-04T09:20:48;102163.51;;;-11.80;36.33
64139;BME280;50435;43.700;-79.318;2023-02-04T09:23:15;102158.04;;;-12.47;36.47
64139;BME280;50435;43.700;-79.318;2023-02-04T09:25:44;102156.05;;;-11.79;36.45
64139;BME280;50435;43.700;-79.318;2023-02-04T09:28:13;102156.72;;;-11.75;36.42
64139;BME280;50435;43.700;-79.318;2023-02-04T09:30:42;102159.13;;;-11.79;36.35
64139;BME280;50435;43.700;-79.318;2023-02-04T09:33:10;102156.84;;;-11.74;36.34
64139;BME280;50435;43.700;-79.318;2023-02-04T09:35:39;102152.90;;;-11.77;36.44
64139;BME280;50435;43.700;-79.318;2023-02-04T09:38:06;102153.73;;;-11.62;36.34
64139;BME280;50435;43.700;-79.318;2023-02-04T09:40:35;102144.05;;;-12.15;36.44
64139;BME280;50435;43.700;-79.318;2023-02-04T09:43:05;102139.72;;;-11.73;36.50
64139;BME280;50435;43.700;-79.318;2023-02-04T09:45:34;102126.28;;;-12.18;36.50
64139;BME280;50435;43.700;-79.318;2023-02-04T09:48:04;102127.62;;;-11.98;36.28
64139;BME280;50435;43.700;-79.318;2023-02-04T09:50:32;102119.29;;;-12.05;36.38
64139;BME280;50435;43.700;-79.318;2023-02-04T09:53:03;102116.66;;;-11.52;36.38
64139;BME280;50435;43.700;-79.318;2023-02-04T09:55:33;102114.67;;;-11.40;36.25
64139;BME280;50435;43.700;-79.318;2023-02-04T09:58:03;102104.43;;;-11.69;36.22
64139;BME280;50435;43.700;-79.318;2023-02-04T10:00:33;102100.44;;;-11.72;36.30
64139;BME280;50435;43.700;-79.318;2023-02-04T10:03:01;102086.77;;;-11.89;36.46
64139;BME280;50435;43.700;-79.318;2023-02-04T10:05:31;102083.60;;;-11.86;36.37
64139;BME280;50435;43.700;-79.318;2023-02-04T10:07:59;102085.53;;;-11.59;36.54
64139;BME280;50435;43.700;-79.318;2023-02-04T10:10:27;102085.86;;;-11.78;36.37
64139;BME280;50435;43.700;-79.318;2023-02-04T10:12:57;102086.23;;;-11.71;36.45
64139;BME280;50435;43.700;-79.318;2023-02-04T10:15:25;102078.68;;;-11.65;36.41
64139;BME280;50435;43.700;-79.318;2023-02-04T10:17:56;102074.22;;;-11.70;36.47
64139;BME280;50435;43.700;-79.318;2023-02-04T10:20:24;102068.42;;;-11.66;36.20
64139;BME280;50435;43.700;-79.318;2023-02-04T10:22:53;102060.55;;;-11.63;36.38
64139;BME280;50435;43.700;-79.318;2023-02-04T10:25:22;102053.34;;;-11.83;36.42
64139;BME280;50435;43.700;-79.318;2023-02-04T10:27:52;102054.37;;;-11.51;36.44
64139;BME280;50435;43.700;-79.318;2023-02-04T10:30:22;102054.52;;;-11.72;36.32
64139;BME280;50435;43.700;-79.318;2023-02-04T10:32:50;102046.54;;;-11.47;36.20
64139;BME280;50435;43.700;-79.318;2023-02-04T10:35:19;102040.64;;;-12.11;36.46
64139;BME280;50435;43.700;-79.318;2023-02-04T10:38:00;102040.09;;;-11.49;36.25
64139;BME280;50435;43.700;-79.318;2023-02-04T10:40:29;102039.98;;;-11.50;36.32
64139;BME280;50435;43.700;-79.318;2023-02-04T10:42:58;102032.88;;;-11.41;36.28
64139;BME280;50435;43.700;-79.318;2023-02-04T10:45:27;102035.62;;;-11.50;36.39
64139;BME280;50435;43.700;-79.318;2023-02-04T10:47:56;102027.54;;;-11.37;36.17
64139;BME280;50435;43.700;-79.318;2023-02-04T10:50:25;102025.23;;;-11.42;36.34
64139;BME280;50435;43.700;-79.318;2023-02-04T10:52:55;102029.47;;;-11.33;36.38
64139;BME280;50435;43.700;-79.318;2023-02-04T10:55:23;102029.44;;;-11.53;36.29
64139;BME280;50435;43.700;-79.318;2023-02-04T10:57:51;102018.72;;;-11.08;36.46
64139;BME280;50435;43.700;-79.318;2023-02-04T11:00:22;102017.44;;;-11.49;36.41
64139;BME280;50435;43.700;-79.318;2023-02-04T11:02:56;102016.34;;;-11.10;36.29
64139;BME280;50435;43.700;-79.318;2023-02-04T11:05:29;102020.45;;;-11.43;36.54
64139;BME280;50435;43.700;-79.318;2023-02-04T11:07:57;102022.12;;;-10.79;36.57
64139;BME280;50435;43.700;-79.318;2023-02-04T11:10:29;102027.78;;;-11.33;36.76
64139;BME280;50435;43.700;-79.318;2023-02-04T11:13:03;102038.67;;;-11.23;36.67
64139;BME280;50435;43.700;-79.318;2023-02-04T11:15:41;102045.19;;;-11.32;36.78
64139;BME280;50435;43.700;-79.318;2023-02-04T11:18:12;102051.54;;;-11.27;36.92
64139;BME280;50435;43.700;-79.318;2023-02-04T11:20:40;102043.03;;;-11.21;36.87
64139;BME280;50435;43.700;-79.318;2023-02-04T11:23:33;102034.40;;;-11.17;36.79
64139;BME280;50435;43.700;-79.318;2023-02-04T11:26:03;102032.91;;;-11.17;37.04
64139;BME280;50435;43.700;-79.318;2023-02-04T11:28:44;102025.38;;;-11.18;36.87
64139;BME280;50435;43.700;-79.318;2023-02-04T11:31:24;102027.81;;;-11.16;37.12
64139;BME280;50435;43.700;-79.318;2023-02-04T11:34:07;102031.40;;;-11.07;37.15
64139;BME280;50435;43.700;-79.318;2023-02-04T11:36:50;102023.05;;;-11.29;37.01
64139;BME280;50435;43.700;-79.318;2023-02-04T11:39:21;102027.32;;;-11.50;37.07
64139;BME280;50435;43.700;-79.318;2023-02-04T11:41:49;102019.59;;;-11.03;37.13
64139;BME280;50435;43.700;-79.318;2023-02-04T11:44:17;102019.21;;;-11.80;37.19
64139;BME280;50435;43.700;-79.318;2023-02-04T11:46:50;102015.32;;;-10.98;37.28
64139;BME280;50435;43.700;-79.318;2023-02-04T11:49:19;102013.45;;;-11.67;37.27
64139;BME280;50435;43.700;-79.318;2023-02-04T11:51:46;102019.14;;;-11.09;37.18
64139;BME280;50435;43.700;-79.318;2023-02-04T11:54:15;102017.98;;;-10.96;37.34
64139;BME280;50435;43.700;-79.318;2023-02-04T11:56:42;102029.60;;;-11.09;37.31
64139;BME280;50435;43.700;-79.318;2023-02-04T11:59:11;102018.57;;;-10.87;37.40
64139;BME280;50435;43.700;-79.318;2023-02-04T12:01:39;102019.93;;;-10.87;37.34
64139;BME280;50435;43.700;-79.318;2023-02-04T12:04:21;102009.73;;;-10.91;37.45
64139;BME280;50435;43.700;-79.318;2023-02-04T12:06:57;102000.65;;;-10.89;37.48
64139;BME280;50435;43.700;-79.318;2023-02-04T12:09:27;101996.86;;;-11.56;37.67
64139;BME280;50435;43.700;-79.318;2023-02-04T12:11:56;101991.48;;;-10.83;37.12
64139;BME280;50435;43.700;-79.318;2023-02-04T12:14:30;101990.20;;;-10.99;37.28
64139;BME280;50435;43.700;-79.318;2023-02-04T12:16:57;101989.19;;;-10.82;37.55
64139;BME280;50435;43.700;-79.318;2023-02-04T12:19:26;101975.51;;;-11.05;37.51
64139;BME280;50435;43.700;-79.318;2023-02-04T12:21:53;101977.23;;;-10.88;37.67
64139;BME280;50435;43.700;-79.318;2023-02-04T12:24:20;101982.60;;;-10.72;37.47
64139;BME280;50435;43.700;-79.318;2023-02-04T12:26:47;101975.26;;;-10.67;37.46